PWSweather.com
Personal Weather Stations
Station Observations
KOMOKA
Komoka Village, Komoka, ON N0L IRO

Komoka VillageKomoka, ON N0L IRO

Lat: 42.9542444, Lon: -81.4348861

Elevation: 805

Station Type: Davis Vantage Pro 2

www.komokaweather.com

High Low Average
Temperature 65.7°F18.7°C 43.3°F6.3°C 54.8°F12.7°C
Dew Point 49.5°F9.7°C 36.0°F2.2°C 41.8°F5.4°C
Winds 7.0 mph 11.3 kmh Calm Calm 3.0 mph N4.8 kmh N
Wind Gusts 20.0 mph32.2 kmh -- 8.0 mph12.9 kmh
Humidity 77% 41% 63%
Pressure 29.94 in1013.9 mb 29.64 in1003.7 mb -
Precipitation 0.25 in6.4 mm - -
Hour Temp Dew Point Humidity Winds Wind Gusts Pressure Precip Precip Rate Daily Precip Total
12:01 AM 45.5°F7.5°C 38.1°F3.4°C 75% Calm Calm -- 29.93 in1013.5 mb 0.00 in0.0 mm 0.00 in0.0 mm 0.00 in0.0 mm
12:08 AM 46.0°F7.8°C 38.7°F3.7°C 75% Calm Calm -- 29.93 in1013.5 mb 0.00 in0.0 mm 0.00 in0.0 mm 0.00 in0.0 mm
12:15 AM 47.1°F8.4°C 40.1°F4.5°C 76% Calm Calm -- 29.92 in1013.2 mb 0.00 in0.0 mm 0.00 in0.0 mm 0.00 in0.0 mm
12:22 AM 47.5°F8.6°C 39.9°F4.4°C 75% Calm Calm -- 29.93 in1013.5 mb 0.00 in0.0 mm 0.00 in0.0 mm 0.00 in0.0 mm
12:29 AM 47.3°F8.5°C 39.7°F4.3°C 75% Calm Calm -- 29.92 in1013.2 mb 0.00 in0.0 mm 0.00 in0.0 mm 0.00 in0.0 mm
12:36 AM 46.6°F8.1°C 38.8°F3.8°C 74% Calm Calm -- 29.92 in1013.2 mb 0.00 in0.0 mm 0.00 in0.0 mm 0.00 in0.0 mm
12:43 AM 46.6°F8.1°C 38.8°F3.8°C 74% Calm Calm -- 29.93 in1013.5 mb 0.00 in0.0 mm 0.00 in0.0 mm 0.00 in0.0 mm
12:50 AM 47.1°F8.4°C 39.4°F4.1°C 74% Calm Calm -- 29.93 in1013.5 mb 0.00 in0.0 mm 0.00 in0.0 mm 0.00 in0.0 mm
12:57 AM 46.9°F8.3°C 39.2°F4.0°C 74% Calm Calm -- 29.93 in1013.5 mb 0.00 in0.0 mm 0.00 in0.0 mm 0.00 in0.0 mm
01:04 AM 46.9°F8.3°C 39.0°F3.9°C 74% Calm Calm -- 29.93 in1013.5 mb 0.00 in0.0 mm 0.00 in0.0 mm 0.00 in0.0 mm
01:11 AM 46.9°F8.3°C 39.0°F3.9°C 74% Calm Calm -- 29.93 in1013.5 mb 0.00 in0.0 mm 0.00 in0.0 mm 0.00 in0.0 mm
01:18 AM 46.6°F8.1°C 38.7°F3.7°C 74% Calm Calm -- 29.92 in1013.2 mb 0.00 in0.0 mm 0.00 in0.0 mm 0.00 in0.0 mm
01:25 AM 46.6°F8.1°C 38.8°F3.8°C 74% Calm Calm -- 29.93 in1013.5 mb 0.00 in0.0 mm 0.00 in0.0 mm 0.00 in0.0 mm
01:32 AM 46.8°F8.2°C 38.8°F3.8°C 74% Calm Calm -- 29.93 in1013.5 mb 0.00 in0.0 mm 0.00 in0.0 mm 0.00 in0.0 mm
01:39 AM 46.0°F7.8°C 38.3°F3.5°C 74% Calm Calm -- 29.93 in1013.5 mb 0.00 in0.0 mm 0.00 in0.0 mm 0.00 in0.0 mm
01:46 AM 46.0°F7.8°C 38.1°F3.4°C 74% Calm Calm -- 29.94 in1013.9 mb 0.00 in0.0 mm 0.00 in0.0 mm 0.00 in0.0 mm
01:53 AM 45.9°F7.7°C 37.9°F3.3°C 74% Calm Calm -- 29.94 in1013.9 mb 0.00 in0.0 mm 0.00 in0.0 mm 0.00 in0.0 mm
02:00 AM 45.3°F7.4°C 37.6°F3.1°C 74% Calm Calm -- 29.94 in1013.9 mb 0.00 in0.0 mm 0.00 in0.0 mm 0.00 in0.0 mm
02:07 AM 44.8°F7.1°C 37.0°F2.8°C 74% Calm Calm -- 29.94 in1013.9 mb 0.00 in0.0 mm 0.00 in0.0 mm 0.00 in0.0 mm
02:14 AM 43.9°F6.6°C 36.1°F2.3°C 74% Calm Calm -- 29.94 in1013.9 mb 0.00 in0.0 mm 0.00 in0.0 mm 0.00 in0.0 mm
02:21 AM 43.9°F6.6°C 36.3°F2.4°C 75% Calm Calm -- 29.94 in1013.9 mb 0.00 in0.0 mm 0.00 in0.0 mm 0.00 in0.0 mm
02:28 AM 43.3°F6.3°C 36.0°F2.2°C 75% Calm Calm -- 29.94 in1013.9 mb 0.00 in0.0 mm 0.00 in0.0 mm 0.00 in0.0 mm
02:35 AM 43.7°F6.5°C 36.3°F2.4°C 75% Calm Calm -- 29.94 in1013.9 mb 0.00 in0.0 mm 0.00 in0.0 mm 0.00 in0.0 mm
02:42 AM 43.9°F6.6°C 36.3°F2.4°C 75% Calm Calm -- 29.94 in1013.9 mb 0.00 in0.0 mm 0.00 in0.0 mm 0.00 in0.0 mm
02:49 AM 43.5°F6.4°C 36.1°F2.3°C 75% Calm Calm -- 29.94 in1013.9 mb 0.00 in0.0 mm 0.00 in0.0 mm 0.00 in0.0 mm
02:56 AM 44.6°F7.0°C 37.6°F3.1°C 76% Calm Calm -- 29.94 in1013.9 mb 0.00 in0.0 mm 0.00 in0.0 mm 0.00 in0.0 mm
03:03 AM 44.6°F7.0°C 37.6°F3.1°C 76% Calm Calm -- 29.94 in1013.9 mb 0.00 in0.0 mm 0.00 in0.0 mm 0.00 in0.0 mm
03:10 AM 45.0°F7.2°C 37.9°F3.3°C 76% Calm Calm -- 29.94 in1013.9 mb 0.00 in0.0 mm 0.00 in0.0 mm 0.00 in0.0 mm
03:17 AM 45.0°F7.2°C 37.9°F3.3°C 76% Calm Calm -- 29.94 in1013.9 mb 0.00 in0.0 mm 0.00 in0.0 mm 0.00 in0.0 mm
03:24 AM 45.0°F7.2°C 37.8°F3.2°C 76% Calm Calm -- 29.94 in1013.9 mb 0.00 in0.0 mm 0.00 in0.0 mm 0.00 in0.0 mm
03:31 AM 44.8°F7.1°C 37.8°F3.2°C 76% Calm Calm -- 29.93 in1013.5 mb 0.00 in0.0 mm 0.00 in0.0 mm 0.00 in0.0 mm
03:38 AM 45.3°F7.4°C 38.1°F3.4°C 76% Calm Calm 3.0 mph4.8 kmh 29.93 in1013.5 mb 0.00 in0.0 mm 0.00 in0.0 mm 0.00 in0.0 mm
03:45 AM 45.1°F7.3°C 38.1°F3.4°C 76% Calm Calm -- 29.92 in1013.2 mb 0.00 in0.0 mm 0.00 in0.0 mm 0.00 in0.0 mm
03:52 AM 45.1°F7.3°C 38.1°F3.4°C 76% 1.0 mph N1.6 kmh N 5.0 mph8.0 kmh 29.92 in1013.2 mb 0.00 in0.0 mm 0.00 in0.0 mm 0.00 in0.0 mm
03:59 AM 45.7°F7.6°C 38.5°F3.6°C 76% 1.0 mph N1.6 kmh N 5.0 mph8.0 kmh 29.92 in1013.2 mb 0.00 in0.0 mm 0.00 in0.0 mm 0.00 in0.0 mm
04:06 AM 45.7°F7.6°C 38.1°F3.4°C 75% Calm Calm -- 29.91 in1012.9 mb 0.00 in0.0 mm 0.00 in0.0 mm 0.00 in0.0 mm
04:13 AM 45.7°F7.6°C 38.1°F3.4°C 75% Calm Calm 3.0 mph4.8 kmh 29.91 in1012.9 mb 0.00 in0.0 mm 0.00 in0.0 mm 0.00 in0.0 mm
04:20 AM 45.5°F7.5°C 38.3°F3.5°C 76% Calm Calm 3.0 mph4.8 kmh 29.92 in1013.2 mb 0.00 in0.0 mm 0.00 in0.0 mm 0.00 in0.0 mm
04:27 AM 45.0°F7.2°C 37.6°F3.1°C 75% Calm Calm 1.0 mph1.6 kmh 29.93 in1013.5 mb 0.00 in0.0 mm 0.00 in0.0 mm 0.00 in0.0 mm
04:34 AM 44.6°F7.0°C 37.2°F2.9°C 75% Calm Calm -- 29.94 in1013.9 mb 0.00 in0.0 mm 0.00 in0.0 mm 0.00 in0.0 mm
04:41 AM 44.1°F6.7°C 37.0°F2.8°C 76% Calm Calm 1.0 mph1.6 kmh 29.93 in1013.5 mb 0.00 in0.0 mm 0.00 in0.0 mm 0.00 in0.0 mm
04:48 AM 44.2°F6.8°C 37.0°F2.8°C 76% Calm Calm 1.0 mph1.6 kmh 29.93 in1013.5 mb 0.00 in0.0 mm 0.00 in0.0 mm 0.00 in0.0 mm
04:55 AM 44.4°F6.9°C 37.4°F3.0°C 76% Calm Calm 1.0 mph1.6 kmh 29.94 in1013.9 mb 0.00 in0.0 mm 0.00 in0.0 mm 0.00 in0.0 mm
05:02 AM 44.4°F6.9°C 37.4°F3.0°C 76% Calm Calm 1.0 mph1.6 kmh 29.94 in1013.9 mb 0.00 in0.0 mm 0.00 in0.0 mm 0.00 in0.0 mm
05:09 AM 44.6°F7.0°C 37.6°F3.1°C 76% Calm Calm 3.0 mph4.8 kmh 29.94 in1013.9 mb 0.00 in0.0 mm 0.00 in0.0 mm 0.00 in0.0 mm
05:16 AM 44.4°F6.9°C 37.4°F3.0°C 76% 1.0 mph N1.6 kmh N 3.0 mph4.8 kmh 29.94 in1013.9 mb 0.00 in0.0 mm 0.00 in0.0 mm 0.00 in0.0 mm
05:23 AM 45.0°F7.2°C 37.9°F3.3°C 76% 1.0 mph N1.6 kmh N 4.0 mph6.4 kmh 29.94 in1013.9 mb 0.00 in0.0 mm 0.00 in0.0 mm 0.00 in0.0 mm
05:30 AM 45.0°F7.2°C 37.9°F3.3°C 76% 1.0 mph N1.6 kmh N 5.0 mph8.0 kmh 29.94 in1013.9 mb 0.00 in0.0 mm 0.00 in0.0 mm 0.00 in0.0 mm
05:37 AM 45.1°F7.3°C 37.9°F3.3°C 76% Calm Calm -- 29.94 in1013.9 mb 0.00 in0.0 mm 0.00 in0.0 mm 0.00 in0.0 mm
05:44 AM 45.0°F7.2°C 37.8°F3.2°C 76% Calm Calm -- 29.93 in1013.5 mb 0.00 in0.0 mm 0.00 in0.0 mm 0.00 in0.0 mm
05:51 AM 45.0°F7.2°C 37.8°F3.2°C 76% 1.0 mph N1.6 kmh N 4.0 mph6.4 kmh 29.93 in1013.5 mb 0.00 in0.0 mm 0.00 in0.0 mm 0.00 in0.0 mm
05:58 AM 45.1°F7.3°C 38.1°F3.4°C 76% 3.0 mph N4.8 kmh N 5.0 mph8.0 kmh 29.94 in1013.9 mb 0.00 in0.0 mm 0.00 in0.0 mm 0.00 in0.0 mm
06:05 AM 45.1°F7.3°C 37.9°F3.3°C 76% 1.0 mph N1.6 kmh N 3.0 mph4.8 kmh 29.93 in1013.5 mb 0.00 in0.0 mm 0.00 in0.0 mm 0.00 in0.0 mm
06:12 AM 45.0°F7.2°C 37.4°F3.0°C 75% 1.0 mph N1.6 kmh N 4.0 mph6.4 kmh 29.93 in1013.5 mb 0.00 in0.0 mm 0.00 in0.0 mm 0.00 in0.0 mm
06:19 AM 44.6°F7.0°C 37.2°F2.9°C 75% 1.0 mph N1.6 kmh N 4.0 mph6.4 kmh 29.94 in1013.9 mb 0.00 in0.0 mm 0.00 in0.0 mm 0.00 in0.0 mm
06:26 AM 44.1°F6.7°C 36.7°F2.6°C 75% Calm Calm 1.0 mph1.6 kmh 29.94 in1013.9 mb 0.00 in0.0 mm 0.00 in0.0 mm 0.00 in0.0 mm
06:33 AM 43.9°F6.6°C 36.5°F2.5°C 75% Calm Calm -- 29.94 in1013.9 mb 0.00 in0.0 mm 0.00 in0.0 mm 0.00 in0.0 mm
06:40 AM 43.5°F6.4°C 36.1°F2.3°C 75% Calm Calm 1.0 mph1.6 kmh 29.94 in1013.9 mb 0.00 in0.0 mm 0.00 in0.0 mm 0.00 in0.0 mm
06:47 AM 43.3°F6.3°C 36.3°F2.4°C 76% Calm Calm 1.0 mph1.6 kmh 29.94 in1013.9 mb 0.00 in0.0 mm 0.00 in0.0 mm 0.00 in0.0 mm
06:54 AM 43.5°F6.4°C 36.5°F2.5°C 76% Calm Calm -- 29.94 in1013.9 mb 0.00 in0.0 mm 0.00 in0.0 mm 0.00 in0.0 mm
07:01 AM 43.3°F6.3°C 36.3°F2.4°C 76% Calm Calm 1.0 mph1.6 kmh 29.94 in1013.9 mb 0.00 in0.0 mm 0.00 in0.0 mm 0.00 in0.0 mm
07:08 AM 43.3°F6.3°C 36.3°F2.4°C 76% Calm Calm 1.0 mph1.6 kmh 29.94 in1013.9 mb 0.00 in0.0 mm 0.00 in0.0 mm 0.00 in0.0 mm
07:15 AM 44.4°F6.9°C 37.2°F2.9°C 76% Calm Calm 3.0 mph4.8 kmh 29.94 in1013.9 mb 0.00 in0.0 mm 0.00 in0.0 mm 0.00 in0.0 mm
07:22 AM 45.7°F7.6°C 38.8°F3.8°C 77% 1.0 mph N1.6 kmh N 5.0 mph8.0 kmh 29.94 in1013.9 mb 0.00 in0.0 mm 0.00 in0.0 mm 0.00 in0.0 mm
07:29 AM 46.9°F8.3°C 39.7°F4.3°C 76% 3.0 mph N4.8 kmh N 5.0 mph8.0 kmh 29.93 in1013.5 mb 0.00 in0.0 mm 0.00 in0.0 mm 0.00 in0.0 mm
07:36 AM 47.7°F8.7°C 40.1°F4.5°C 75% 4.0 mph N6.4 kmh N 7.0 mph11.3 kmh 29.93 in1013.5 mb 0.00 in0.0 mm 0.00 in0.0 mm 0.00 in0.0 mm
07:43 AM 48.0°F8.9°C 40.5°F4.7°C 75% 3.0 mph N4.8 kmh N 7.0 mph11.3 kmh 29.93 in1013.5 mb 0.00 in0.0 mm 0.00 in0.0 mm 0.00 in0.0 mm
07:50 AM 48.7°F9.3°C 40.8°F4.9°C 74% 3.0 mph N4.8 kmh N 7.0 mph11.3 kmh 29.93 in1013.5 mb 0.00 in0.0 mm 0.00 in0.0 mm 0.00 in0.0 mm
07:57 AM 49.1°F9.5°C 40.8°F4.9°C 73% 4.0 mph N6.4 kmh N 7.0 mph11.3 kmh 29.93 in1013.5 mb 0.00 in0.0 mm 0.00 in0.0 mm 0.00 in0.0 mm
08:04 AM 49.5°F9.7°C 40.8°F4.9°C 72% 3.0 mph N4.8 kmh N 5.0 mph8.0 kmh 29.93 in1013.5 mb 0.00 in0.0 mm 0.00 in0.0 mm 0.00 in0.0 mm
08:11 AM 49.8°F9.9°C 41.2°F5.1°C 72% 3.0 mph N4.8 kmh N 5.0 mph8.0 kmh 29.93 in1013.5 mb 0.00 in0.0 mm 0.00 in0.0 mm 0.00 in0.0 mm
08:18 AM 50.4°F10.2°C 41.7°F5.4°C 72% 1.0 mph N1.6 kmh N 4.0 mph6.4 kmh 29.93 in1013.5 mb 0.00 in0.0 mm 0.00 in0.0 mm 0.00 in0.0 mm
08:25 AM 50.7°F10.4°C 41.7°F5.4°C 71% 1.0 mph N1.6 kmh N 4.0 mph6.4 kmh 29.93 in1013.5 mb 0.00 in0.0 mm 0.00 in0.0 mm 0.00 in0.0 mm
08:32 AM 51.6°F10.9°C 42.4°F5.8°C 71% 1.0 mph N1.6 kmh N 4.0 mph6.4 kmh 29.93 in1013.5 mb 0.00 in0.0 mm 0.00 in0.0 mm 0.00 in0.0 mm
08:39 AM 52.5°F11.4°C 43.0°F6.1°C 70% Calm Calm 4.0 mph6.4 kmh 29.93 in1013.5 mb 0.00 in0.0 mm 0.00 in0.0 mm 0.00 in0.0 mm
08:46 AM 53.6°F12.0°C 43.7°F6.5°C 69% 3.0 mph N4.8 kmh N 5.0 mph8.0 kmh 29.92 in1013.2 mb 0.00 in0.0 mm 0.00 in0.0 mm 0.00 in0.0 mm
08:53 AM 54.0°F12.2°C 43.2°F6.2°C 67% 4.0 mph N6.4 kmh N 9.0 mph14.5 kmh 29.92 in1013.2 mb 0.00 in0.0 mm 0.00 in0.0 mm 0.00 in0.0 mm
09:00 AM 54.1°F12.3°C 43.3°F6.3°C 67% 4.0 mph N6.4 kmh N 11.0 mph17.7 kmh 29.91 in1012.9 mb 0.00 in0.0 mm 0.00 in0.0 mm 0.00 in0.0 mm
09:07 AM 54.3°F12.4°C 43.5°F6.4°C 67% 4.0 mph N6.4 kmh N 11.0 mph17.7 kmh 29.91 in1012.9 mb 0.00 in0.0 mm 0.00 in0.0 mm 0.00 in0.0 mm
09:14 AM 54.1°F12.3°C 43.2°F6.2°C 66% 5.0 mph N8.0 kmh N 15.0 mph24.1 kmh 29.91 in1012.9 mb 0.00 in0.0 mm 0.00 in0.0 mm 0.00 in0.0 mm
09:21 AM 54.3°F12.4°C 43.3°F6.3°C 66% 5.0 mph N8.0 kmh N 12.0 mph19.3 kmh 29.91 in1012.9 mb 0.00 in0.0 mm 0.00 in0.0 mm 0.00 in0.0 mm
09:28 AM 54.9°F12.7°C 43.7°F6.5°C 66% 4.0 mph N6.4 kmh N 9.0 mph14.5 kmh 29.91 in1012.9 mb 0.00 in0.0 mm 0.00 in0.0 mm 0.00 in0.0 mm
09:35 AM 55.2°F12.9°C 44.1°F6.7°C 66% 4.0 mph N6.4 kmh N 9.0 mph14.5 kmh 29.90 in1012.5 mb 0.00 in0.0 mm 0.00 in0.0 mm 0.00 in0.0 mm
09:42 AM 55.8°F13.2°C 43.9°F6.6°C 64% 5.0 mph N8.0 kmh N 12.0 mph19.3 kmh 29.91 in1012.9 mb 0.00 in0.0 mm 0.00 in0.0 mm 0.00 in0.0 mm
09:49 AM 56.5°F13.6°C 43.9°F6.6°C 63% 5.0 mph N8.0 kmh N 13.0 mph20.9 kmh 29.91 in1012.9 mb 0.00 in0.0 mm 0.00 in0.0 mm 0.00 in0.0 mm
09:56 AM 56.8°F13.8°C 44.4°F6.9°C 63% 4.0 mph N6.4 kmh N 12.0 mph19.3 kmh 29.91 in1012.9 mb 0.00 in0.0 mm 0.00 in0.0 mm 0.00 in0.0 mm
10:03 AM 57.0°F13.9°C 44.6°F7.0°C 63% 4.0 mph N6.4 kmh N 13.0 mph20.9 kmh 29.91 in1012.9 mb 0.00 in0.0 mm 0.00 in0.0 mm 0.00 in0.0 mm
10:10 AM 57.7°F14.3°C 44.8°F7.1°C 62% 5.0 mph N8.0 kmh N 13.0 mph20.9 kmh 29.90 in1012.5 mb 0.00 in0.0 mm 0.00 in0.0 mm 0.00 in0.0 mm
10:17 AM 58.3°F14.6°C 44.8°F7.1°C 61% 4.0 mph N6.4 kmh N 8.0 mph12.9 kmh 29.90 in1012.5 mb 0.00 in0.0 mm 0.00 in0.0 mm 0.00 in0.0 mm
10:24 AM 58.3°F14.6°C 44.4°F6.9°C 60% 4.0 mph N6.4 kmh N 8.0 mph12.9 kmh 29.91 in1012.9 mb 0.00 in0.0 mm 0.00 in0.0 mm 0.00 in0.0 mm
10:31 AM 58.6°F14.8°C 44.8°F7.1°C 60% 3.0 mph N4.8 kmh N 8.0 mph12.9 kmh 29.91 in1012.9 mb 0.00 in0.0 mm 0.00 in0.0 mm 0.00 in0.0 mm
10:38 AM 58.8°F14.9°C 44.6°F7.0°C 59% 4.0 mph N6.4 kmh N 13.0 mph20.9 kmh 29.90 in1012.5 mb 0.00 in0.0 mm 0.00 in0.0 mm 0.00 in0.0 mm
10:45 AM 58.6°F14.8°C 44.2°F6.8°C 59% 4.0 mph N6.4 kmh N 12.0 mph19.3 kmh 29.89 in1012.2 mb 0.00 in0.0 mm 0.00 in0.0 mm 0.00 in0.0 mm
10:52 AM 58.6°F14.8°C 44.8°F7.1°C 60% 5.0 mph N8.0 kmh N 12.0 mph19.3 kmh 29.89 in1012.2 mb 0.00 in0.0 mm 0.00 in0.0 mm 0.00 in0.0 mm
10:59 AM 58.8°F14.9°C 45.0°F7.2°C 60% 5.0 mph N8.0 kmh N 13.0 mph20.9 kmh 29.88 in1011.9 mb 0.00 in0.0 mm 0.00 in0.0 mm 0.00 in0.0 mm
11:06 AM 59.4°F15.2°C 45.5°F7.5°C 60% 4.0 mph N6.4 kmh N 8.0 mph12.9 kmh 29.88 in1011.9 mb 0.00 in0.0 mm 0.00 in0.0 mm 0.00 in0.0 mm
11:13 AM 59.9°F15.5°C 45.1°F7.3°C 58% 4.0 mph N6.4 kmh N 11.0 mph17.7 kmh 29.87 in1011.5 mb 0.00 in0.0 mm 0.00 in0.0 mm 0.00 in0.0 mm
11:20 AM 61.0°F16.1°C 45.5°F7.5°C 57% 5.0 mph N8.0 kmh N 13.0 mph20.9 kmh 29.87 in1011.5 mb 0.00 in0.0 mm 0.00 in0.0 mm 0.00 in0.0 mm
11:27 AM 61.3°F16.3°C 45.9°F7.7°C 57% 5.0 mph N8.0 kmh N 16.0 mph25.7 kmh 29.87 in1011.5 mb 0.00 in0.0 mm 0.00 in0.0 mm 0.00 in0.0 mm
11:34 AM 61.9°F16.6°C 45.9°F7.7°C 56% 5.0 mph N8.0 kmh N 16.0 mph25.7 kmh 29.87 in1011.5 mb 0.00 in0.0 mm 0.00 in0.0 mm 0.00 in0.0 mm
11:41 AM 61.9°F16.6°C 45.1°F7.3°C 54% 5.0 mph N8.0 kmh N 16.0 mph25.7 kmh 29.86 in1011.2 mb 0.00 in0.0 mm 0.00 in0.0 mm 0.00 in0.0 mm
11:55 AM 62.8°F17.1°C 45.3°F7.4°C 53% 5.0 mph N8.0 kmh N 20.0 mph32.2 kmh 29.85 in1010.8 mb 0.00 in0.0 mm 0.00 in0.0 mm 0.00 in0.0 mm
12:02 PM 62.8°F17.1°C 45.9°F7.7°C 54% 5.0 mph N8.0 kmh N 13.0 mph20.9 kmh 29.85 in1010.8 mb 0.00 in0.0 mm 0.00 in0.0 mm 0.00 in0.0 mm
12:09 PM 63.3°F17.4°C 45.9°F7.7°C 53% 5.0 mph N8.0 kmh N 15.0 mph24.1 kmh 29.85 in1010.8 mb 0.00 in0.0 mm 0.00 in0.0 mm 0.00 in0.0 mm
12:16 PM 63.9°F17.7°C 45.9°F7.7°C 52% 4.0 mph N6.4 kmh N 15.0 mph24.1 kmh 29.84 in1010.5 mb 0.00 in0.0 mm 0.00 in0.0 mm 0.00 in0.0 mm
12:23 PM 64.2°F17.9°C 44.8°F7.1°C 49% 4.0 mph N6.4 kmh N 17.0 mph27.4 kmh 29.84 in1010.5 mb 0.00 in0.0 mm 0.00 in0.0 mm 0.00 in0.0 mm
12:30 PM 64.2°F17.9°C 44.1°F6.7°C 48% 5.0 mph N8.0 kmh N 15.0 mph24.1 kmh 29.84 in1010.5 mb 0.00 in0.0 mm 0.00 in0.0 mm 0.00 in0.0 mm
12:37 PM 64.2°F17.9°C 44.6°F7.0°C 49% 5.0 mph N8.0 kmh N 13.0 mph20.9 kmh 29.83 in1010.2 mb 0.00 in0.0 mm 0.00 in0.0 mm 0.00 in0.0 mm
12:44 PM 64.6°F18.1°C 44.4°F6.9°C 48% 5.0 mph N8.0 kmh N 17.0 mph27.4 kmh 29.83 in1010.2 mb 0.00 in0.0 mm 0.00 in0.0 mm 0.00 in0.0 mm
12:51 PM 64.8°F18.2°C 45.1°F7.3°C 49% 5.0 mph N8.0 kmh N 17.0 mph27.4 kmh 29.83 in1010.2 mb 0.00 in0.0 mm 0.00 in0.0 mm 0.00 in0.0 mm
12:58 PM 64.4°F18.0°C 44.2°F6.8°C 48% 5.0 mph N8.0 kmh N 17.0 mph27.4 kmh 29.82 in1009.8 mb 0.00 in0.0 mm 0.00 in0.0 mm 0.00 in0.0 mm
01:05 PM 64.0°F17.8°C 44.1°F6.7°C 48% 7.0 mph N11.3 kmh N 17.0 mph27.4 kmh 29.81 in1009.5 mb 0.00 in0.0 mm 0.00 in0.0 mm 0.00 in0.0 mm
01:12 PM 64.0°F17.8°C 43.9°F6.6°C 48% 5.0 mph N8.0 kmh N 13.0 mph20.9 kmh 29.80 in1009.1 mb 0.00 in0.0 mm 0.00 in0.0 mm 0.00 in0.0 mm
01:19 PM 63.9°F17.7°C 43.9°F6.6°C 48% 5.0 mph N8.0 kmh N 15.0 mph24.1 kmh 29.80 in1009.1 mb 0.00 in0.0 mm 0.00 in0.0 mm 0.00 in0.0 mm
01:26 PM 63.7°F17.6°C 43.2°F6.2°C 47% 5.0 mph N8.0 kmh N 13.0 mph20.9 kmh 29.79 in1008.8 mb 0.00 in0.0 mm 0.00 in0.0 mm 0.00 in0.0 mm
01:33 PM 63.9°F17.7°C 42.6°F5.9°C 46% 5.0 mph N8.0 kmh N 12.0 mph19.3 kmh 29.79 in1008.8 mb 0.00 in0.0 mm 0.00 in0.0 mm 0.00 in0.0 mm
01:40 PM 63.7°F17.6°C 42.4°F5.8°C 46% 5.0 mph N8.0 kmh N 13.0 mph20.9 kmh 29.79 in1008.8 mb 0.00 in0.0 mm 0.00 in0.0 mm 0.00 in0.0 mm
01:47 PM 63.7°F17.6°C 42.4°F5.8°C 46% 5.0 mph N8.0 kmh N 17.0 mph27.4 kmh 29.77 in1008.1 mb 0.00 in0.0 mm 0.00 in0.0 mm 0.00 in0.0 mm
01:54 PM 63.5°F17.5°C 43.0°F6.1°C 47% 5.0 mph N8.0 kmh N 12.0 mph19.3 kmh 29.77 in1008.1 mb 0.00 in0.0 mm 0.00 in0.0 mm 0.00 in0.0 mm
02:01 PM 63.7°F17.6°C 41.9°F5.5°C 45% 4.0 mph N6.4 kmh N 17.0 mph27.4 kmh 29.77 in1008.1 mb 0.00 in0.0 mm 0.00 in0.0 mm 0.00 in0.0 mm
02:08 PM 63.9°F17.7°C 40.8°F4.9°C 43% 5.0 mph N8.0 kmh N 11.0 mph17.7 kmh 29.77 in1008.1 mb 0.00 in0.0 mm 0.00 in0.0 mm 0.00 in0.0 mm
02:15 PM 63.9°F17.7°C 40.8°F4.9°C 43% 5.0 mph N8.0 kmh N 13.0 mph20.9 kmh 29.77 in1008.1 mb 0.00 in0.0 mm 0.00 in0.0 mm 0.00 in0.0 mm
02:22 PM 63.9°F17.7°C 41.0°F5.0°C 43% 5.0 mph N8.0 kmh N 11.0 mph17.7 kmh 29.77 in1008.1 mb 0.00 in0.0 mm 0.00 in0.0 mm 0.00 in0.0 mm
02:29 PM 64.0°F17.8°C 40.5°F4.7°C 42% 5.0 mph N8.0 kmh N 15.0 mph24.1 kmh 29.77 in1008.1 mb 0.00 in0.0 mm 0.00 in0.0 mm 0.00 in0.0 mm
02:36 PM 64.2°F17.9°C 41.9°F5.5°C 44% 5.0 mph N8.0 kmh N 15.0 mph24.1 kmh 29.77 in1008.1 mb 0.00 in0.0 mm 0.00 in0.0 mm 0.00 in0.0 mm
02:43 PM 64.9°F18.3°C 42.4°F5.8°C 44% 4.0 mph N6.4 kmh N 13.0 mph20.9 kmh 29.77 in1008.1 mb 0.00 in0.0 mm 0.00 in0.0 mm 0.00 in0.0 mm
02:50 PM 65.3°F18.5°C 42.3°F5.7°C 43% 4.0 mph N6.4 kmh N 12.0 mph19.3 kmh 29.77 in1008.1 mb 0.00 in0.0 mm 0.00 in0.0 mm 0.00 in0.0 mm
02:57 PM 65.7°F18.7°C 42.6°F5.9°C 43% 5.0 mph N8.0 kmh N 15.0 mph24.1 kmh 29.77 in1008.1 mb 0.00 in0.0 mm 0.00 in0.0 mm 0.00 in0.0 mm
03:04 PM 65.5°F18.6°C 41.0°F5.0°C 41% 5.0 mph N8.0 kmh N 15.0 mph24.1 kmh 29.77 in1008.1 mb 0.00 in0.0 mm 0.00 in0.0 mm 0.00 in0.0 mm
03:11 PM 64.9°F18.3°C 41.9°F5.5°C 43% 7.0 mph NNE11.3 kmh NNE 20.0 mph32.2 kmh 29.76 in1007.8 mb 0.00 in0.0 mm 0.00 in0.0 mm 0.00 in0.0 mm
03:18 PM 64.9°F18.3°C 41.2°F5.1°C 42% 7.0 mph NNE11.3 kmh NNE 20.0 mph32.2 kmh 29.75 in1007.5 mb 0.00 in0.0 mm 0.00 in0.0 mm 0.00 in0.0 mm
03:25 PM 64.8°F18.2°C 41.7°F5.4°C 43% 5.0 mph N8.0 kmh N 13.0 mph20.9 kmh 29.75 in1007.5 mb 0.00 in0.0 mm 0.00 in0.0 mm 0.00 in0.0 mm
03:32 PM 64.8°F18.2°C 41.7°F5.4°C 43% 7.0 mph N11.3 kmh N 15.0 mph24.1 kmh 29.74 in1007.1 mb 0.00 in0.0 mm 0.00 in0.0 mm 0.00 in0.0 mm
03:39 PM 64.6°F18.1°C 41.5°F5.3°C 43% 5.0 mph N8.0 kmh N 16.0 mph25.7 kmh 29.74 in1007.1 mb 0.00 in0.0 mm 0.00 in0.0 mm 0.00 in0.0 mm
03:46 PM 64.4°F18.0°C 41.4°F5.2°C 43% 5.0 mph NNE8.0 kmh NNE 17.0 mph27.4 kmh 29.73 in1006.8 mb 0.00 in0.0 mm 0.00 in0.0 mm 0.00 in0.0 mm
03:53 PM 64.4°F18.0°C 40.8°F4.9°C 42% 5.0 mph N8.0 kmh N 13.0 mph20.9 kmh 29.73 in1006.8 mb 0.00 in0.0 mm 0.00 in0.0 mm 0.00 in0.0 mm
04:00 PM 64.2°F17.9°C 41.2°F5.1°C 43% 5.0 mph N8.0 kmh N 12.0 mph19.3 kmh 29.73 in1006.8 mb 0.00 in0.0 mm 0.00 in0.0 mm 0.00 in0.0 mm
04:07 PM 64.2°F17.9°C 40.6°F4.8°C 42% 4.0 mph NNE6.4 kmh NNE 12.0 mph19.3 kmh 29.73 in1006.8 mb 0.00 in0.0 mm 0.00 in0.0 mm 0.00 in0.0 mm
04:14 PM 64.0°F17.8°C 41.0°F5.0°C 43% 4.0 mph NE6.4 kmh NE 11.0 mph17.7 kmh 29.75 in1007.5 mb 0.00 in0.0 mm 0.00 in0.0 mm 0.00 in0.0 mm
04:21 PM 63.7°F17.6°C 41.4°F5.2°C 44% 3.0 mph NNE4.8 kmh NNE 13.0 mph20.9 kmh 29.75 in1007.5 mb 0.00 in0.0 mm 0.00 in0.0 mm 0.00 in0.0 mm
04:28 PM 62.4°F16.9°C 42.6°F5.9°C 48% 4.0 mph N6.4 kmh N 13.0 mph20.9 kmh 29.75 in1007.5 mb 0.00 in0.0 mm 0.00 in0.0 mm 0.00 in0.0 mm
04:35 PM 60.4°F15.8°C 43.3°F6.3°C 53% 1.0 mph N1.6 kmh N 8.0 mph12.9 kmh 29.75 in1007.5 mb 0.00 in0.0 mm 0.00 in0.0 mm 0.01 in0.3 mm
04:42 PM 59.4°F15.2°C 43.2°F6.2°C 55% 1.0 mph N1.6 kmh N 9.0 mph14.5 kmh 29.74 in1007.1 mb 0.01 in0.3 mm 0.09 in2.3 mm 0.01 in0.3 mm
04:49 PM 59.2°F15.1°C 43.5°F6.4°C 56% 4.0 mph N6.4 kmh N 15.0 mph24.1 kmh 29.74 in1007.1 mb 0.02 in0.5 mm 0.09 in2.3 mm 0.02 in0.5 mm
04:56 PM 58.6°F14.8°C 43.0°F6.1°C 56% 5.0 mph N8.0 kmh N 12.0 mph19.3 kmh 29.73 in1006.8 mb 0.02 in0.5 mm 0.00 in0.0 mm 0.02 in0.5 mm
05:03 PM 58.8°F14.9°C 42.6°F5.9°C 55% 7.0 mph N11.3 kmh N 15.0 mph24.1 kmh 29.72 in1006.4 mb 0.02 in0.5 mm 0.00 in0.0 mm 0.02 in0.5 mm
05:10 PM 58.8°F14.9°C 43.2°F6.2°C 56% 5.0 mph N8.0 kmh N 13.0 mph20.9 kmh 29.72 in1006.4 mb 0.02 in0.5 mm 0.00 in0.0 mm 0.02 in0.5 mm
05:17 PM 58.8°F14.9°C 42.8°F6.0°C 55% 4.0 mph N6.4 kmh N 13.0 mph20.9 kmh 29.72 in1006.4 mb 0.02 in0.5 mm 0.00 in0.0 mm 0.02 in0.5 mm
05:24 PM 59.0°F15.0°C 42.8°F6.0°C 55% 5.0 mph N8.0 kmh N 12.0 mph19.3 kmh 29.71 in1006.1 mb 0.02 in0.5 mm 0.00 in0.0 mm 0.02 in0.5 mm
05:31 PM 59.4°F15.2°C 42.6°F5.9°C 54% 7.0 mph N11.3 kmh N 15.0 mph24.1 kmh 29.70 in1005.8 mb 0.02 in0.5 mm 0.00 in0.0 mm 0.02 in0.5 mm
05:38 PM 59.4°F15.2°C 42.8°F6.0°C 54% 5.0 mph N8.0 kmh N 13.0 mph20.9 kmh 29.70 in1005.8 mb 0.01 in0.3 mm 0.00 in0.0 mm 0.02 in0.5 mm
05:45 PM 59.5°F15.3°C 41.9°F5.5°C 52% 5.0 mph N8.0 kmh N 13.0 mph20.9 kmh 29.70 in1005.8 mb 0.01 in0.3 mm 0.00 in0.0 mm 0.02 in0.5 mm
05:52 PM 60.1°F15.6°C 42.3°F5.7°C 52% 5.0 mph N8.0 kmh N 15.0 mph24.1 kmh 29.71 in1006.1 mb 0.00 in0.0 mm 0.00 in0.0 mm 0.02 in0.5 mm
05:59 PM 60.1°F15.6°C 42.4°F5.8°C 52% 5.0 mph N8.0 kmh N 15.0 mph24.1 kmh 29.70 in1005.8 mb 0.00 in0.0 mm 0.00 in0.0 mm 0.02 in0.5 mm
06:06 PM 60.1°F15.6°C 43.0°F6.1°C 53% 7.0 mph N11.3 kmh N 16.0 mph25.7 kmh 29.70 in1005.8 mb 0.00 in0.0 mm 0.00 in0.0 mm 0.02 in0.5 mm
06:13 PM 60.1°F15.6°C 43.3°F6.3°C 54% 7.0 mph N11.3 kmh N 15.0 mph24.1 kmh 29.70 in1005.8 mb 0.00 in0.0 mm 0.00 in0.0 mm 0.02 in0.5 mm
06:20 PM 59.9°F15.5°C 44.2°F6.8°C 56% 5.0 mph N8.0 kmh N 15.0 mph24.1 kmh 29.70 in1005.8 mb 0.00 in0.0 mm 0.00 in0.0 mm 0.02 in0.5 mm
06:27 PM 59.7°F15.4°C 44.4°F6.9°C 57% 4.0 mph N6.4 kmh N 13.0 mph20.9 kmh 29.70 in1005.8 mb 0.00 in0.0 mm 0.00 in0.0 mm 0.02 in0.5 mm
06:34 PM 59.4°F15.2°C 44.6°F7.0°C 58% 4.0 mph N6.4 kmh N 15.0 mph24.1 kmh 29.71 in1006.1 mb 0.00 in0.0 mm 0.00 in0.0 mm 0.02 in0.5 mm
06:41 PM 59.4°F15.2°C 44.6°F7.0°C 58% 5.0 mph N8.0 kmh N 15.0 mph24.1 kmh 29.71 in1006.1 mb 0.00 in0.0 mm 0.00 in0.0 mm 0.02 in0.5 mm
06:48 PM 59.2°F15.1°C 44.4°F6.9°C 58% 5.0 mph N8.0 kmh N 12.0 mph19.3 kmh 29.71 in1006.1 mb 0.00 in0.0 mm 0.00 in0.0 mm 0.02 in0.5 mm
06:55 PM 59.2°F15.1°C 44.4°F6.9°C 58% 4.0 mph N6.4 kmh N 9.0 mph14.5 kmh 29.70 in1005.8 mb 0.00 in0.0 mm 0.00 in0.0 mm 0.02 in0.5 mm
07:02 PM 59.2°F15.1°C 44.2°F6.8°C 58% 5.0 mph N8.0 kmh N 9.0 mph14.5 kmh 29.70 in1005.8 mb 0.00 in0.0 mm 0.00 in0.0 mm 0.02 in0.5 mm
07:09 PM 59.2°F15.1°C 43.9°F6.6°C 57% 5.0 mph N8.0 kmh N 16.0 mph25.7 kmh 29.69 in1005.4 mb 0.00 in0.0 mm 0.00 in0.0 mm 0.02 in0.5 mm
07:16 PM 59.4°F15.2°C 44.1°F6.7°C 57% 7.0 mph N11.3 kmh N 16.0 mph25.7 kmh 29.69 in1005.4 mb 0.00 in0.0 mm 0.00 in0.0 mm 0.02 in0.5 mm
07:23 PM 59.4°F15.2°C 44.1°F6.7°C 57% 5.0 mph N8.0 kmh N 16.0 mph25.7 kmh 29.69 in1005.4 mb 0.00 in0.0 mm 0.00 in0.0 mm 0.02 in0.5 mm
07:30 PM 59.4°F15.2°C 44.2°F6.8°C 57% 5.0 mph N8.0 kmh N 16.0 mph25.7 kmh 29.69 in1005.4 mb 0.00 in0.0 mm 0.00 in0.0 mm 0.02 in0.5 mm
07:37 PM 59.2°F15.1°C 43.9°F6.6°C 57% 5.0 mph N8.0 kmh N 13.0 mph20.9 kmh 29.69 in1005.4 mb 0.00 in0.0 mm 0.00 in0.0 mm 0.02 in0.5 mm
07:44 PM 59.4°F15.2°C 43.7°F6.5°C 56% 4.0 mph N6.4 kmh N 9.0 mph14.5 kmh 29.69 in1005.4 mb 0.00 in0.0 mm 0.00 in0.0 mm 0.02 in0.5 mm
07:51 PM 59.4°F15.2°C 43.7°F6.5°C 56% 4.0 mph N6.4 kmh N 11.0 mph17.7 kmh 29.68 in1005.1 mb 0.00 in0.0 mm 0.00 in0.0 mm 0.02 in0.5 mm
07:58 PM 59.4°F15.2°C 43.5°F6.4°C 56% 4.0 mph N6.4 kmh N 11.0 mph17.7 kmh 29.68 in1005.1 mb 0.00 in0.0 mm 0.00 in0.0 mm 0.02 in0.5 mm
08:05 PM 59.4°F15.2°C 43.7°F6.5°C 56% 5.0 mph N8.0 kmh N 15.0 mph24.1 kmh 29.67 in1004.7 mb 0.00 in0.0 mm 0.00 in0.0 mm 0.02 in0.5 mm
08:12 PM 59.4°F15.2°C 43.7°F6.5°C 56% 4.0 mph N6.4 kmh N 15.0 mph24.1 kmh 29.66 in1004.4 mb 0.00 in0.0 mm 0.00 in0.0 mm 0.02 in0.5 mm
08:19 PM 59.4°F15.2°C 43.2°F6.2°C 55% 4.0 mph N6.4 kmh N 9.0 mph14.5 kmh 29.66 in1004.4 mb 0.00 in0.0 mm 0.00 in0.0 mm 0.02 in0.5 mm
08:26 PM 59.5°F15.3°C 43.3°F6.3°C 55% 4.0 mph N6.4 kmh N 13.0 mph20.9 kmh 29.66 in1004.4 mb 0.00 in0.0 mm 0.00 in0.0 mm 0.02 in0.5 mm
08:33 PM 59.5°F15.3°C 43.3°F6.3°C 55% 3.0 mph N4.8 kmh N 13.0 mph20.9 kmh 29.66 in1004.4 mb 0.00 in0.0 mm 0.00 in0.0 mm 0.02 in0.5 mm
08:40 PM 59.5°F15.3°C 43.3°F6.3°C 55% 3.0 mph N4.8 kmh N 8.0 mph12.9 kmh 29.66 in1004.4 mb 0.00 in0.0 mm 0.00 in0.0 mm 0.02 in0.5 mm
08:47 PM 59.7°F15.4°C 43.5°F6.4°C 55% 3.0 mph N4.8 kmh N 8.0 mph12.9 kmh 29.66 in1004.4 mb 0.00 in0.0 mm 0.00 in0.0 mm 0.02 in0.5 mm
08:54 PM 59.4°F15.2°C 43.7°F6.5°C 56% 3.0 mph N4.8 kmh N 8.0 mph12.9 kmh 29.66 in1004.4 mb 0.00 in0.0 mm 0.00 in0.0 mm 0.02 in0.5 mm
09:01 PM 59.5°F15.3°C 43.3°F6.3°C 55% 4.0 mph N6.4 kmh N 9.0 mph14.5 kmh 29.65 in1004.1 mb 0.00 in0.0 mm 0.00 in0.0 mm 0.02 in0.5 mm
09:08 PM 59.4°F15.2°C 43.2°F6.2°C 55% 4.0 mph N6.4 kmh N 9.0 mph14.5 kmh 29.65 in1004.1 mb 0.00 in0.0 mm 0.00 in0.0 mm 0.02 in0.5 mm
09:15 PM 59.4°F15.2°C 43.5°F6.4°C 56% 3.0 mph N4.8 kmh N 8.0 mph12.9 kmh 29.65 in1004.1 mb 0.00 in0.0 mm 0.00 in0.0 mm 0.02 in0.5 mm
09:22 PM 59.2°F15.1°C 43.3°F6.3°C 56% 3.0 mph N4.8 kmh N 7.0 mph11.3 kmh 29.65 in1004.1 mb 0.00 in0.0 mm 0.00 in0.0 mm 0.02 in0.5 mm
09:29 PM 59.4°F15.2°C 43.5°F6.4°C 56% 1.0 mph N1.6 kmh N 7.0 mph11.3 kmh 29.64 in1003.7 mb 0.00 in0.0 mm 0.00 in0.0 mm 0.02 in0.5 mm
09:36 PM 59.5°F15.3°C 43.9°F6.6°C 56% 3.0 mph N4.8 kmh N 7.0 mph11.3 kmh 29.64 in1003.7 mb 0.00 in0.0 mm 0.00 in0.0 mm 0.02 in0.5 mm
09:43 PM 59.7°F15.4°C 44.1°F6.7°C 56% 3.0 mph N4.8 kmh N 7.0 mph11.3 kmh 29.65 in1004.1 mb 0.00 in0.0 mm 0.00 in0.0 mm 0.02 in0.5 mm
09:50 PM 58.8°F14.9°C 45.0°F7.2°C 60% 3.0 mph N4.8 kmh N 7.0 mph11.3 kmh 29.67 in1004.7 mb 0.02 in0.5 mm 0.17 in4.3 mm 0.03 in0.8 mm
09:57 PM 57.4°F14.1°C 44.4°F6.9°C 62% 3.0 mph N4.8 kmh N 8.0 mph12.9 kmh 29.67 in1004.7 mb 0.02 in0.5 mm 0.00 in0.0 mm 0.03 in0.8 mm
10:04 PM 56.1°F13.4°C 44.6°F7.0°C 65% Calm Calm 1.0 mph1.6 kmh 29.67 in1004.7 mb 0.02 in0.5 mm 0.00 in0.0 mm 0.05 in1.3 mm
10:11 PM 55.2°F12.9°C 44.1°F6.7°C 66% Calm Calm 1.0 mph1.6 kmh 29.67 in1004.7 mb 0.03 in0.8 mm 0.09 in2.3 mm 0.06 in1.5 mm
10:18 PM 55.0°F12.8°C 44.2°F6.8°C 67% Calm Calm 1.0 mph1.6 kmh 29.68 in1005.1 mb 0.05 in1.3 mm 0.17 in4.3 mm 0.06 in1.5 mm
10:25 PM 55.0°F12.8°C 44.8°F7.1°C 68% Calm Calm 1.0 mph1.6 kmh 29.68 in1005.1 mb 0.06 in1.5 mm 0.09 in2.3 mm 0.08 in2.0 mm
10:32 PM 55.0°F12.8°C 45.3°F7.4°C 70% Calm Calm 1.0 mph1.6 kmh 29.68 in1005.1 mb 0.13 in3.3 mm 0.60 in15.2 mm 0.16 in4.1 mm
10:39 PM 55.4°F13.0°C 46.6°F8.1°C 72% 1.0 mph N1.6 kmh N 3.0 mph4.8 kmh 29.67 in1004.7 mb 0.20 in5.1 mm 0.60 in15.2 mm 0.22 in5.6 mm
10:46 PM 55.6°F13.1°C 46.9°F8.3°C 73% 1.0 mph N1.6 kmh N 4.0 mph6.4 kmh 29.67 in1004.7 mb 0.20 in5.1 mm 0.00 in0.0 mm 0.24 in6.1 mm
10:53 PM 55.6°F13.1°C 47.1°F8.4°C 73% 1.0 mph N1.6 kmh N 3.0 mph4.8 kmh 29.66 in1004.4 mb 0.22 in5.6 mm 0.17 in4.3 mm 0.25 in6.4 mm
11:00 PM 55.6°F13.1°C 47.5°F8.6°C 74% 1.0 mph N1.6 kmh N 3.0 mph4.8 kmh 29.66 in1004.4 mb 0.22 in5.6 mm 0.00 in0.0 mm 0.01 in0.3 mm
11:07 PM 55.6°F13.1°C 47.5°F8.6°C 74% Calm Calm 3.0 mph4.8 kmh 29.66 in1004.4 mb 0.24 in6.1 mm 0.17 in4.3 mm 0.02 in0.5 mm
11:14 PM 55.8°F13.2°C 47.5°F8.6°C 74% Calm Calm 1.0 mph1.6 kmh 29.66 in1004.4 mb 0.24 in6.1 mm 0.00 in0.0 mm 0.04 in1.0 mm
11:21 PM 55.8°F13.2°C 48.0°F8.9°C 75% Calm Calm 1.0 mph1.6 kmh 29.66 in1004.4 mb 0.24 in6.1 mm 0.00 in0.0 mm 0.06 in1.5 mm
11:28 PM 55.9°F13.3°C 48.2°F9.0°C 75% Calm Calm 3.0 mph4.8 kmh 29.65 in1004.1 mb 0.23 in5.8 mm 0.00 in0.0 mm 0.06 in1.5 mm
11:35 PM 55.9°F13.3°C 48.2°F9.0°C 75% Calm Calm 5.0 mph8.0 kmh 29.65 in1004.1 mb 0.15 in3.8 mm 0.00 in0.0 mm 0.08 in2.0 mm
11:42 PM 56.1°F13.4°C 48.2°F9.0°C 75% 1.0 mph N1.6 kmh N 5.0 mph8.0 kmh 29.65 in1004.1 mb 0.13 in3.3 mm 0.00 in0.0 mm 0.09 in2.3 mm
11:49 PM 56.7°F13.7°C 48.9°F9.4°C 75% 1.0 mph N1.6 kmh N 4.0 mph6.4 kmh 29.65 in1004.1 mb 0.12 in3.0 mm 0.00 in0.0 mm 0.09 in2.3 mm
11:56 PM 57.4°F14.1°C 49.5°F9.7°C 75% 1.0 mph N1.6 kmh N 4.0 mph6.4 kmh 29.64 in1003.7 mb 0.09 in2.3 mm 0.00 in0.0 mm 0.09 in2.3 mm